sensor_id;sensor_type;location;lat;lon;timestamp;temperature;humidity
6666;DHT22;3369;49.906;8.598;2022-12-01T00:01:06;5.60;99.90
6666;DHT22;3369;49.906;8.598;2022-12-01T00:03:32;5.60;99.90
6666;DHT22;3369;49.906;8.598;2022-12-01T00:06:08;5.70;99.90
6666;DHT22;3369;49.906;8.598;2022-12-01T00:08:34;5.60;99.90
6666;DHT22;3369;49.906;8.598;2022-12-01T00:11:08;5.60;99.90
6666;DHT22;3369;49.906;8.598;2022-12-01T00:13:35;5.60;99.90
6666;DHT22;3369;49.906;8.598;2022-12-01T00:16:14;5.60;99.90
6666;DHT22;3369;49.906;8.598;2022-12-01T00:18:40;5.60;99.90
6666;DHT22;3369;49.906;8.598;2022-12-01T00:21:16;5.60;99.90
6666;DHT22;3369;49.906;8.598;2022-12-01T00:23:43;5.60;99.90
6666;DHT22;3369;49.906;8.598;2022-12-01T00:26:08;5.60;99.90
6666;DHT22;3369;49.906;8.598;2022-12-01T00:28:34;5.60;99.90
6666;DHT22;3369;49.906;8.598;2022-12-01T00:31:00;5.50;99.90
6666;DHT22;3369;49.906;8.598;2022-12-01T00:33:25;5.50;99.90
6666;DHT22;3369;49.906;8.598;2022-12-01T00:36:00;5.50;99.90
6666;DHT22;3369;49.906;8.598;2022-12-01T00:38:26;5.50;99.90
6666;DHT22;3369;49.906;8.598;2022-12-01T00:40:52;5.50;99.90
6666;DHT22;3369;49.906;8.598;2022-12-01T00:43:17;5.50;99.90
6666;DHT22;3369;49.906;8.598;2022-12-01T00:45:43;5.50;99.90
6666;DHT22;3369;49.906;8.598;2022-12-01T00:48:09;5.50;99.90
6666;DHT22;3369;49.906;8.598;2022-12-01T00:50:34;5.50;99.90
6666;DHT22;3369;49.906;8.598;2022-12-01T00:53:00;5.50;99.90
6666;DHT22;3369;49.906;8.598;2022-12-01T00:55:26;5.50;99.90
6666;DHT22;3369;49.906;8.598;2022-12-01T00:57:51;5.50;99.90
6666;DHT22;3369;49.906;8.598;2022-12-01T01:00:17;5.50;99.90
6666;DHT22;3369;49.906;8.598;2022-12-01T01:02:43;5.40;99.90
6666;DHT22;3369;49.906;8.598;2022-12-01T01:05:09;5.50;99.90
6666;DHT22;3369;49.906;8.598;2022-12-01T01:07:34;5.50;99.90
6666;DHT22;3369;49.906;8.598;2022-12-01T01:10:00;5.40;99.90
6666;DHT22;3369;49.906;8.598;2022-12-01T01:12:26;5.50;99.90
6666;DHT22;3369;49.906;8.598;2022-12-01T01:14:52;5.40;99.90
6666;DHT22;3369;49.906;8.598;2022-12-01T01:17:18;5.40;99.90
6666;DHT22;3369;49.906;8.598;2022-12-01T01:19:44;5.40;99.90
6666;DHT22;3369;49.906;8.598;2022-12-01T01:22:10;5.40;99.90
6666;DHT22;3369;49.906;8.598;2022-12-01T01:24:36;5.40;99.90
6666;DHT22;3369;49.906;8.598;2022-12-01T01:27:02;5.30;99.90
6666;DHT22;3369;49.906;8.598;2022-12-01T01:29:27;5.30;99.90
6666;DHT22;3369;49.906;8.598;2022-12-01T01:31:53;5.30;99.90
6666;DHT22;3369;49.906;8.598;2022-12-01T01:34:20;5.30;99.90
6666;DHT22;3369;49.906;8.598;2022-12-01T01:36:46;5.20;99.90
6666;DHT22;3369;49.906;8.598;2022-12-01T01:39:11;5.20;99.90
6666;DHT22;3369;49.906;8.598;2022-12-01T01:41:37;5.20;99.90
6666;DHT22;3369;49.906;8.598;2022-12-01T01:44:39;5.20;99.90
6666;DHT22;3369;49.906;8.598;2022-12-01T01:46:48;5.20;99.90
6666;DHT22;3369;49.906;8.598;2022-12-01T01:49:14;5.10;99.90
6666;DHT22;3369;49.906;8.598;2022-12-01T01:51:47;5.10;99.90
6666;DHT22;3369;49.906;8.598;2022-12-01T01:54:27;5.10;99.90
6666;DHT22;3369;49.906;8.598;2022-12-01T01:56:55;5.10;99.90
6666;DHT22;3369;49.906;8.598;2022-12-01T01:59:26;5.10;99.90
6666;DHT22;3369;49.906;8.598;2022-12-01T02:02:02;5.10;99.90
6666;DHT22;3369;49.906;8.598;2022-12-01T02:04:31;5.10;99.90
6666;DHT22;3369;49.906;8.598;2022-12-01T02:06:58;5.10;99.90
6666;DHT22;3369;49.906;8.598;2022-12-01T02:09:24;5.00;99.90
6666;DHT22;3369;49.906;8.598;2022-12-01T02:40:00;4.90;99.90
6666;DHT22;3369;49.906;8.598;2022-12-01T02:45:26;4.90;99.90
6666;DHT22;3369;49.906;8.598;2022-12-01T02:47:53;4.90;99.90
6666;DHT22;3369;49.906;8.598;2022-12-01T02:50:22;4.90;99.90
6666;DHT22;3369;49.906;8.598;2022-12-01T02:52:49;4.90;99.90
6666;DHT22;3369;49.906;8.598;2022-12-01T02:55:16;4.90;99.90
6666;DHT22;3369;49.906;8.598;2022-12-01T02:57:41;5.00;99.90
6666;DHT22;3369;49.906;8.598;2022-12-01T03:00:07;5.00;99.90
6666;DHT22;3369;49.906;8.598;2022-12-01T03:05:42;5.00;99.90
6666;DHT22;3369;49.906;8.598;2022-12-01T03:08:35;5.00;99.90
6666;DHT22;3369;49.906;8.598;2022-12-01T03:11:11;5.00;99.90
6666;DHT22;3369;49.906;8.598;2022-12-01T03:14:08;5.00;99.90
6666;DHT22;3369;49.906;8.598;2022-12-01T03:21:55;5.00;99.90
6666;DHT22;3369;49.906;8.598;2022-12-01T03:24:25;4.90;99.90
6666;DHT22;3369;49.906;8.598;2022-12-01T03:26:55;5.00;99.90
6666;DHT22;3369;49.906;8.598;2022-12-01T03:29:29;5.00;99.90
6666;DHT22;3369;49.906;8.598;2022-12-01T03:32:03;5.00;99.90
6666;DHT22;3369;49.906;8.598;2022-12-01T03:34:50;4.90;99.90
6666;DHT22;3369;49.906;8.598;2022-12-01T03:37:43;4.90;99.90
6666;DHT22;3369;49.906;8.598;2022-12-01T03:40:11;4.90;99.90
6666;DHT22;3369;49.906;8.598;2022-12-01T03:42:59;4.90;99.90
6666;DHT22;3369;49.906;8.598;2022-12-01T03:45:35;4.90;99.90
6666;DHT22;3369;49.906;8.598;2022-12-01T03:48:05;4.90;99.90
6666;DHT22;3369;49.906;8.598;2022-12-01T03:51:26;4.90;99.90
6666;DHT22;3369;49.906;8.598;2022-12-01T03:53:25;4.90;99.90
6666;DHT22;3369;49.906;8.598;2022-12-01T03:55:59;4.90;99.90
6666;DHT22;3369;49.906;8.598;2022-12-01T03:58:37;4.90;99.90
6666;DHT22;3369;49.906;8.598;2022-12-01T04:01:04;4.90;99.90
6666;DHT22;3369;49.906;8.598;2022-12-01T04:03:32;4.90;99.90
6666;DHT22;3369;49.906;8.598;2022-12-01T04:05:58;4.90;99.90
6666;DHT22;3369;49.906;8.598;2022-12-01T04:08:24;4.90;99.90
6666;DHT22;3369;49.906;8.598;2022-12-01T04:10:50;4.80;99.90
6666;DHT22;3369;49.906;8.598;2022-12-01T04:13:15;4.80;99.90
6666;DHT22;3369;49.906;8.598;2022-12-01T04:15:53;4.80;99.90
6666;DHT22;3369;49.906;8.598;2022-12-01T04:18:20;4.80;99.90
6666;DHT22;3369;49.906;8.598;2022-12-01T04:20:49;4.80;99.90
6666;DHT22;3369;49.906;8.598;2022-12-01T04:23:15;4.80;99.90
6666;DHT22;3369;49.906;8.598;2022-12-01T04:26:03;4.80;99.90
6666;DHT22;3369;49.906;8.598;2022-12-01T04:28:29;4.80;99.90
6666;DHT22;3369;49.906;8.598;2022-12-01T04:30:54;4.80;99.90
6666;DHT22;3369;49.906;8.598;2022-12-01T04:33:20;4.90;99.90
6666;DHT22;3369;49.906;8.598;2022-12-01T04:35:58;4.80;99.90
6666;DHT22;3369;49.906;8.598;2022-12-01T04:38:24;4.80;99.90
6666;DHT22;3369;49.906;8.598;2022-12-01T04:40:49;4.80;99.90
6666;DHT22;3369;49.906;8.598;2022-12-01T04:43:15;4.90;99.90
6666;DHT22;3369;49.906;8.598;2022-12-01T04:45:41;4.80;99.90
6666;DHT22;3369;49.906;8.598;2022-12-01T04:48:06;4.80;99.90
6666;DHT22;3369;49.906;8.598;2022-12-01T04:50:32;4.90;99.90
6666;DHT22;3369;49.906;8.598;2022-12-01T04:52:57;4.90;99.90
6666;DHT22;3369;49.906;8.598;2022-12-01T04:55:23;4.80;99.90
6666;DHT22;3369;49.906;8.598;2022-12-01T04:57:50;4.90;99.90
6666;DHT22;3369;49.906;8.598;2022-12-01T05:00:16;4.80;99.90
6666;DHT22;3369;49.906;8.598;2022-12-01T05:02:42;4.80;99.90
6666;DHT22;3369;49.906;8.598;2022-12-01T05:05:09;4.80;99.90
6666;DHT22;3369;49.906;8.598;2022-12-01T05:07:35;4.80;99.90
6666;DHT22;3369;49.906;8.598;2022-12-01T05:10:01;4.80;99.90
6666;DHT22;3369;49.906;8.598;2022-12-01T05:12:27;4.80;99.90
6666;DHT22;3369;49.906;8.598;2022-12-01T05:14:53;4.80;99.90
6666;DHT22;3369;49.906;8.598;2022-12-01T05:17:18;4.80;99.90
6666;DHT22;3369;49.906;8.598;2022-12-01T05:19:44;4.80;99.90
6666;DHT22;3369;49.906;8.598;2022-12-01T05:22:28;4.80;99.90
6666;DHT22;3369;49.906;8.598;2022-12-01T05:24:54;4.80;99.90
6666;DHT22;3369;49.906;8.598;2022-12-01T05:27:19;4.80;99.90
6666;DHT22;3369;49.906;8.598;2022-12-01T05:29:45;4.80;99.90
6666;DHT22;3369;49.906;8.598;2022-12-01T05:32:10;4.80;99.90
6666;DHT22;3369;49.906;8.598;2022-12-01T05:34:36;4.80;99.90
6666;DHT22;3369;49.906;8.598;2022-12-01T05:37:01;4.70;99.90
6666;DHT22;3369;49.906;8.598;2022-12-01T05:39:27;4.70;99.90
6666;DHT22;3369;49.906;8.598;2022-12-01T05:41:53;4.70;99.90
6666;DHT22;3369;49.906;8.598;2022-12-01T05:44:19;4.70;99.90
6666;DHT22;3369;49.906;8.598;2022-12-01T05:46:44;4.70;99.90
6666;DHT22;3369;49.906;8.598;2022-12-01T05:49:10;4.70;99.90
6666;DHT22;3369;49.906;8.598;2022-12-01T05:51:35;4.70;99.90
6666;DHT22;3369;49.906;8.598;2022-12-01T05:54:01;4.60;99.90
6666;DHT22;3369;49.906;8.598;2022-12-01T05:56:27;4.70;99.90
6666;DHT22;3369;49.906;8.598;2022-12-01T05:58:53;4.60;99.90
6666;DHT22;3369;49.906;8.598;2022-12-01T06:01:18;4.60;99.90
6666;DHT22;3369;49.906;8.598;2022-12-01T06:03:44;4.60;99.90
6666;DHT22;3369;49.906;8.598;2022-12-01T06:06:09;4.60;99.90
6666;DHT22;3369;49.906;8.598;2022-12-01T06:08:35;4.60;99.90
6666;DHT22;3369;49.906;8.598;2022-12-01T06:11:01;4.60;99.90
6666;DHT22;3369;49.906;8.598;2022-12-01T06:13:26;4.60;99.90
6666;DHT22;3369;49.906;8.598;2022-12-01T06:16:00;4.60;99.90
6666;DHT22;3369;49.906;8.598;2022-12-01T06:18:29;4.50;99.90
6666;DHT22;3369;49.906;8.598;2022-12-01T06:20:55;4.50;99.90
6666;DHT22;3369;49.906;8.598;2022-12-01T06:23:21;4.50;99.90
6666;DHT22;3369;49.906;8.598;2022-12-01T06:25:47;4.50;99.90
6666;DHT22;3369;49.906;8.598;2022-12-01T06:28:13;4.50;99.90
6666;DHT22;3369;49.906;8.598;2022-12-01T06:30:38;4.50;99.90
6666;DHT22;3369;49.906;8.598;2022-12-01T06:33:04;4.50;99.90
6666;DHT22;3369;49.906;8.598;2022-12-01T06:35:30;4.50;99.90
6666;DHT22;3369;49.906;8.598;2022-12-01T06:37:56;4.50;99.90
6666;DHT22;3369;49.906;8.598;2022-12-01T06:40:22;4.50;99.90
6666;DHT22;3369;49.906;8.598;2022-12-01T06:42:48;4.50;99.90
6666;DHT22;3369;49.906;8.598;2022-12-01T06:45:14;4.50;99.90
6666;DHT22;3369;49.906;8.598;2022-12-01T06:47:40;4.50;99.90
6666;DHT22;3369;49.906;8.598;2022-12-01T06:50:06;4.50;99.90
6666;DHT22;3369;49.906;8.598;2022-12-01T06:52:35;4.50;99.90
6666;DHT22;3369;49.906;8.598;2022-12-01T06:55:01;4.50;99.90
6666;DHT22;3369;49.906;8.598;2022-12-01T06:57:28;4.50;99.90
6666;DHT22;3369;49.906;8.598;2022-12-01T06:59:54;4.50;99.90
6666;DHT22;3369;49.906;8.598;2022-12-01T07:02:19;4.40;99.90
6666;DHT22;3369;49.906;8.598;2022-12-01T07:04:45;4.40;99.90
6666;DHT22;3369;49.906;8.598;2022-12-01T07:07:11;4.40;99.90
6666;DHT22;3369;49.906;8.598;2022-12-01T07:09:37;4.40;99.90
6666;DHT22;3369;49.906;8.598;2022-12-01T07:12:03;4.40;99.90
6666;DHT22;3369;49.906;8.598;2022-12-01T07:14:29;4.40;99.90
6666;DHT22;3369;49.906;8.598;2022-12-01T07:16:56;4.30;99.90
6666;DHT22;3369;49.906;8.598;2022-12-01T07:19:22;4.30;99.90
6666;DHT22;3369;49.906;8.598;2022-12-01T07:21:48;4.30;99.90
6666;DHT22;3369;49.906;8.598;2022-12-01T07:24:13;4.30;99.90
6666;DHT22;3369;49.906;8.598;2022-12-01T07:26:39;4.20;99.90
6666;DHT22;3369;49.906;8.598;2022-12-01T07:29:09;4.20;99.90
6666;DHT22;3369;49.906;8.598;2022-12-01T07:31:36;4.20;99.90
6666;DHT22;3369;49.906;8.598;2022-12-01T07:34:02;4.10;99.90
6666;DHT22;3369;49.906;8.598;2022-12-01T07:36:27;4.20;99.90
6666;DHT22;3369;49.906;8.598;2022-12-01T07:38:53;4.20;99.90
6666;DHT22;3369;49.906;8.598;2022-12-01T07:41:19;4.20;99.90
6666;DHT22;3369;49.906;8.598;2022-12-01T07:43:45;4.20;99.90
6666;DHT22;3369;49.906;8.598;2022-12-01T07:46:14;4.20;99.90
6666;DHT22;3369;49.906;8.598;2022-12-01T07:48:41;4.30;99.90
6666;DHT22;3369;49.906;8.598;2022-12-01T07:51:08;4.30;99.90
6666;DHT22;3369;49.906;8.598;2022-12-01T07:53:35;4.20;99.90
6666;DHT22;3369;49.906;8.598;2022-12-01T07:56:01;4.30;99.90
6666;DHT22;3369;49.906;8.598;2022-12-01T07:58:28;4.30;99.90
6666;DHT22;3369;49.906;8.598;2022-12-01T08:00:54;4.30;99.90
6666;DHT22;3369;49.906;8.598;2022-12-01T08:03:19;4.20;99.90
6666;DHT22;3369;49.906;8.598;2022-12-01T08:05:54;4.20;99.90
6666;DHT22;3369;49.906;8.598;2022-12-01T08:08:20;4.20;99.90
6666;DHT22;3369;49.906;8.598;2022-12-01T08:10:46;4.10;99.90
6666;DHT22;3369;49.906;8.598;2022-12-01T08:13:11;4.20;99.90
6666;DHT22;3369;49.906;8.598;2022-12-01T08:15:37;4.10;99.90
6666;DHT22;3369;49.906;8.598;2022-12-01T08:18:02;4.20;99.90
6666;DHT22;3369;49.906;8.598;2022-12-01T08:20:28;4.10;99.90
6666;DHT22;3369;49.906;8.598;2022-12-01T08:22:54;4.20;99.90
6666;DHT22;3369;49.906;8.598;2022-12-01T08:25:19;4.20;99.90
6666;DHT22;3369;49.906;8.598;2022-12-01T08:27:45;4.20;99.90
6666;DHT22;3369;49.906;8.598;2022-12-01T08:30:11;4.20;99.90
6666;DHT22;3369;49.906;8.598;2022-12-01T08:32:37;4.30;99.90
6666;DHT22;3369;49.906;8.598;2022-12-01T08:35:03;4.30;99.90
6666;DHT22;3369;49.906;8.598;2022-12-01T08:37:28;4.30;99.90
6666;DHT22;3369;49.906;8.598;2022-12-01T08:39:54;4.30;99.90
6666;DHT22;3369;49.906;8.598;2022-12-01T08:42:19;4.30;99.90
6666;DHT22;3369;49.906;8.598;2022-12-01T08:44:46;4.30;99.90
6666;DHT22;3369;49.906;8.598;2022-12-01T08:47:12;4.30;99.90
6666;DHT22;3369;49.906;8.598;2022-12-01T08:49:37;4.30;99.90
6666;DHT22;3369;49.906;8.598;2022-12-01T08:52:03;4.30;99.90
6666;DHT22;3369;49.906;8.598;2022-12-01T08:54:29;4.30;99.90
6666;DHT22;3369;49.906;8.598;2022-12-01T08:56:55;4.30;99.90
6666;DHT22;3369;49.906;8.598;2022-12-01T08:59:20;4.30;99.90
6666;DHT22;3369;49.906;8.598;2022-12-01T09:01:46;4.40;99.90
6666;DHT22;3369;49.906;8.598;2022-12-01T09:04:22;4.40;99.90
6666;DHT22;3369;49.906;8.598;2022-12-01T09:06:49;4.30;99.90
6666;DHT22;3369;49.906;8.598;2022-12-01T09:09:18;4.40;99.90
6666;DHT22;3369;49.906;8.598;2022-12-01T09:11:45;4.30;99.90
6666;DHT22;3369;49.906;8.598;2022-12-01T09:14:12;4.30;99.90
6666;DHT22;3369;49.906;8.598;2022-12-01T09:16:38;4.30;99.90
6666;DHT22;3369;49.906;8.598;2022-12-01T09:19:04;4.30;99.90
6666;DHT22;3369;49.906;8.598;2022-12-01T09:21:31;4.30;99.90
6666;DHT22;3369;49.906;8.598;2022-12-01T09:23:59;4.30;99.90
6666;DHT22;3369;49.906;8.598;2022-12-01T09:26:25;4.40;99.90
6666;DHT22;3369;49.906;8.598;2022-12-01T09:29:05;4.40;99.90
6666;DHT22;3369;49.906;8.598;2022-12-01T09:31:32;4.40;99.90
6666;DHT22;3369;49.906;8.598;2022-12-01T09:34:00;4.40;99.90
6666;DHT22;3369;49.906;8.598;2022-12-01T09:36:27;4.40;99.90
6666;DHT22;3369;49.906;8.598;2022-12-01T09:38:53;4.40;99.90
6666;DHT22;3369;49.906;8.598;2022-12-01T09:44:27;4.50;99.90
6666;DHT22;3369;49.906;8.598;2022-12-01T09:52:32;4.60;99.90
6666;DHT22;3369;49.906;8.598;2022-12-01T09:54:59;4.70;99.90
6666;DHT22;3369;49.906;8.598;2022-12-01T09:57:32;4.70;99.90
6666;DHT22;3369;49.906;8.598;2022-12-01T10:00:03;4.80;99.90
6666;DHT22;3369;49.906;8.598;2022-12-01T10:03:22;4.90;99.90
6666;DHT22;3369;49.906;8.598;2022-12-01T10:05:48;5.00;99.90
6666;DHT22;3369;49.906;8.598;2022-12-01T10:08:22;5.00;99.90
6666;DHT22;3369;49.906;8.598;2022-12-01T10:10:51;5.10;99.90
6666;DHT22;3369;49.906;8.598;2022-12-01T10:13:21;5.20;99.90
6666;DHT22;3369;49.906;8.598;2022-12-01T10:29:12;5.30;99.90
6666;DHT22;3369;49.906;8.598;2022-12-01T10:32:04;5.40;99.90
6666;DHT22;3369;49.906;8.598;2022-12-01T10:34:36;5.40;99.90
6666;DHT22;3369;49.906;8.598;2022-12-01T10:37:02;5.40;99.90
6666;DHT22;3369;49.906;8.598;2022-12-01T10:39:40;5.40;99.90
6666;DHT22;3369;49.906;8.598;2022-12-01T10:42:13;5.40;99.90
6666;DHT22;3369;49.906;8.598;2022-12-01T10:44:39;5.40;99.90
6666;DHT22;3369;49.906;8.598;2022-12-01T10:47:24;5.40;99.90
6666;DHT22;3369;49.906;8.598;2022-12-01T10:49:50;5.40;99.90
6666;DHT22;3369;49.906;8.598;2022-12-01T10:52:58;5.40;99.90
6666;DHT22;3369;49.906;8.598;2022-12-01T10:55:25;5.50;99.90
6666;DHT22;3369;49.906;8.598;2022-12-01T10:57:54;5.50;99.90
6666;DHT22;3369;49.906;8.598;2022-12-01T11:00:26;5.50;99.90
6666;DHT22;3369;49.906;8.598;2022-12-01T11:02:52;5.60;99.90
6666;DHT22;3369;49.906;8.598;2022-12-01T11:05:25;5.70;99.90
6666;DHT22;3369;49.906;8.598;2022-12-01T11:07:53;5.60;99.90
6666;DHT22;3369;49.906;8.598;2022-12-01T11:10:28;5.60;99.90
6666;DHT22;3369;49.906;8.598;2022-12-01T11:13:02;5.70;99.90
6666;DHT22;3369;49.906;8.598;2022-12-01T11:15:38;5.70;99.90
6666;DHT22;3369;49.906;8.598;2022-12-01T11:18:19;5.70;99.90
6666;DHT22;3369;49.906;8.598;2022-12-01T11:20:45;5.60;99.90
6666;DHT22;3369;49.906;8.598;2022-12-01T11:28:32;5.70;99.90
6666;DHT22;3369;49.906;8.598;2022-12-01T11:31:07;5.60;99.90
6666;DHT22;3369;49.906;8.598;2022-12-01T11:33:43;5.70;99.90
6666;DHT22;3369;49.906;8.598;2022-12-01T11:36:10;5.60;99.90
6666;DHT22;3369;49.906;8.598;2022-12-01T11:38:43;5.70;99.90
6666;DHT22;3369;49.906;8.598;2022-12-01T11:41:24;5.70;99.90
6666;DHT22;3369;49.906;8.598;2022-12-01T11:43:51;5.60;99.90
6666;DHT22;3369;49.906;8.598;2022-12-01T11:46:27;5.60;99.90
6666;DHT22;3369;49.906;8.598;2022-12-01T11:48:58;5.60;99.90
6666;DHT22;3369;49.906;8.598;2022-12-01T11:51:33;5.60;99.90
6666;DHT22;3369;49.906;8.598;2022-12-01T11:56:33;5.60;99.90
6666;DHT22;3369;49.906;8.598;2022-12-01T11:59:07;5.60;99.90
6666;DHT22;3369;49.906;8.598;2022-12-01T12:21:08;5.80;99.90
6666;DHT22;3369;49.906;8.598;2022-12-01T12:23:39;5.90;99.90
6666;DHT22;3369;49.906;8.598;2022-12-01T12:26:16;5.90;99.90
6666;DHT22;3369;49.906;8.598;2022-12-01T12:37:36;5.90;99.90
6666;DHT22;3369;49.906;8.598;2022-12-01T12:40:41;5.90;99.90
6666;DHT22;3369;49.906;8.598;2022-12-01T12:43:40;5.90;99.90
6666;DHT22;3369;49.906;8.598;2022-12-01T12:46:12;5.90;99.90
6666;DHT22;3369;49.906;8.598;2022-12-01T12:48:55;5.90;99.90
6666;DHT22;3369;49.906;8.598;2022-12-01T12:51:39;5.90;99.90
6666;DHT22;3369;49.906;8.598;2022-12-01T12:56:51;5.90;99.90
6666;DHT22;3369;49.906;8.598;2022-12-01T12:59:51;5.90;99.90
6666;DHT22;3369;49.906;8.598;2022-12-01T13:02:26;6.00;99.90
6666;DHT22;3369;49.906;8.598;2022-12-01T13:05:08;6.00;99.90
6666;DHT22;3369;49.906;8.598;2022-12-01T13:07:54;6.00;99.90
6666;DHT22;3369;49.906;8.598;2022-12-01T13:10:46;6.00;99.90
6666;DHT22;3369;49.906;8.598;2022-12-01T13:15:42;6.00;99.90
6666;DHT22;3369;49.906;8.598;2022-12-01T13:18:18;5.90;99.90
6666;DHT22;3369;49.906;8.598;2022-12-01T13:20:51;6.00;99.90
6666;DHT22;3369;49.906;8.598;2022-12-01T13:23:19;5.90;99.90
6666;DHT22;3369;49.906;8.598;2022-12-01T13:25:49;5.90;99.90
6666;DHT22;3369;49.906;8.598;2022-12-01T13:28:26;5.90;99.90
6666;DHT22;3369;49.906;8.598;2022-12-01T13:31:09;6.00;99.90
6666;DHT22;3369;49.906;8.598;2022-12-01T13:33:37;6.00;99.90
6666;DHT22;3369;49.906;8.598;2022-12-01T13:36:09;6.00;99.90
6666;DHT22;3369;49.906;8.598;2022-12-01T13:38:36;6.10;99.90
6666;DHT22;3369;49.906;8.598;2022-12-01T13:43:56;6.20;99.90
6666;DHT22;3369;49.906;8.598;2022-12-01T13:46:26;6.20;99.90
6666;DHT22;3369;49.906;8.598;2022-12-01T13:48:54;6.20;99.90
6666;DHT22;3369;49.906;8.598;2022-12-01T13:51:22;6.30;99.90
6666;DHT22;3369;49.906;8.598;2022-12-01T13:56:26;6.30;99.90
6666;DHT22;3369;49.906;8.598;2022-12-01T13:58:58;6.30;99.90
6666;DHT22;3369;49.906;8.598;2022-12-01T14:04:06;6.30;99.90
6666;DHT22;3369;49.906;8.598;2022-12-01T14:07:10;6.30;99.90
6666;DHT22;3369;49.906;8.598;2022-12-01T14:09:39;6.30;99.90
6666;DHT22;3369;49.906;8.598;2022-12-01T14:12:26;6.30;99.90
6666;DHT22;3369;49.906;8.598;2022-12-01T14:15:04;6.30;99.90
6666;DHT22;3369;49.906;8.598;2022-12-01T14:17:44;6.30;99.90
6666;DHT22;3369;49.906;8.598;2022-12-01T14:22:39;6.30;99.90
6666;DHT22;3369;49.906;8.598;2022-12-01T14:27:52;6.20;99.90
6666;DHT22;3369;49.906;8.598;2022-12-01T14:55:39;5.80;99.90
6666;DHT22;3369;49.906;8.598;2022-12-01T14:58:27;5.80;99.90
6666;DHT22;3369;49.906;8.598;2022-12-01T15:01:01;5.70;99.90
6666;DHT22;3369;49.906;8.598;2022-12-01T15:03:34;5.80;99.90
6666;DHT22;3369;49.906;8.598;2022-12-01T15:06:00;5.80;99.90
6666;DHT22;3369;49.906;8.598;2022-12-01T15:08:28;5.70;99.90
6666;DHT22;3369;49.906;8.598;2022-12-01T15:10:57;5.70;99.90
6666;DHT22;3369;49.906;8.598;2022-12-01T15:15:57;5.70;99.90
6666;DHT22;3369;49.906;8.598;2022-12-01T15:18:34;5.70;99.90
6666;DHT22;3369;49.906;8.598;2022-12-01T15:23:59;5.70;99.90
6666;DHT22;3369;49.906;8.598;2022-12-01T15:26:34;5.70;99.90
6666;DHT22;3369;49.906;8.598;2022-12-01T15:31:46;5.60;99.90
6666;DHT22;3369;49.906;8.598;2022-12-01T15:34:22;5.60;99.90
6666;DHT22;3369;49.906;8.598;2022-12-01T15:36:50;5.60;99.90
6666;DHT22;3369;49.906;8.598;2022-12-01T15:39:20;5.50;99.90
6666;DHT22;3369;49.906;8.598;2022-12-01T15:41:48;5.50;99.90
6666;DHT22;3369;49.906;8.598;2022-12-01T15:44:32;5.50;99.90
6666;DHT22;3369;49.906;8.598;2022-12-01T15:46:58;5.50;99.90
6666;DHT22;3369;49.906;8.598;2022-12-01T15:49:30;5.40;99.90
6666;DHT22;3369;49.906;8.598;2022-12-01T15:52:09;5.40;99.90
6666;DHT22;3369;49.906;8.598;2022-12-01T15:54:35;5.40;99.90
6666;DHT22;3369;49.906;8.598;2022-12-01T15:57:02;5.40;99.90
6666;DHT22;3369;49.906;8.598;2022-12-01T15:59:38;5.30;99.90
6666;DHT22;3369;49.906;8.598;2022-12-01T16:02:31;5.30;99.90
6666;DHT22;3369;49.906;8.598;2022-12-01T16:07:35;5.20;99.90
6666;DHT22;3369;49.906;8.598;2022-12-01T16:10:01;5.20;99.90
6666;DHT22;3369;49.906;8.598;2022-12-01T16:12:32;5.20;99.90
6666;DHT22;3369;49.906;8.598;2022-12-01T16:17:48;5.20;99.90
6666;DHT22;3369;49.906;8.598;2022-12-01T16:20:29;5.20;99.90
6666;DHT22;3369;49.906;8.598;2022-12-01T16:23:01;5.10;99.90
6666;DHT22;3369;49.906;8.598;2022-12-01T16:25:38;5.10;99.90
6666;DHT22;3369;49.906;8.598;2022-12-01T16:28:16;5.10;99.90
6666;DHT22;3369;49.906;8.598;2022-12-01T16:30:42;5.10;99.90
6666;DHT22;3369;49.906;8.598;2022-12-01T16:33:16;5.10;99.90
6666;DHT22;3369;49.906;8.598;2022-12-01T16:35:43;5.10;99.90
6666;DHT22;3369;49.906;8.598;2022-12-01T16:38:17;5.10;99.90
6666;DHT22;3369;49.906;8.598;2022-12-01T16:40:46;5.10;99.90
6666;DHT22;3369;49.906;8.598;2022-12-01T16:43:19;5.10;99.90
6666;DHT22;3369;49.906;8.598;2022-12-01T16:45:46;5.10;99.90
6666;DHT22;3369;49.906;8.598;2022-12-01T16:48:20;5.00;99.90
6666;DHT22;3369;49.906;8.598;2022-12-01T16:50:49;5.00;99.90
6666;DHT22;3369;49.906;8.598;2022-12-01T16:53:16;5.10;99.90
6666;DHT22;3369;49.906;8.598;2022-12-01T16:55:46;5.10;99.90
6666;DHT22;3369;49.906;8.598;2022-12-01T16:58:12;5.10;99.90
6666;DHT22;3369;49.906;8.598;2022-12-01T17:00:38;5.10;99.90
6666;DHT22;3369;49.906;8.598;2022-12-01T17:03:05;5.10;99.90
6666;DHT22;3369;49.906;8.598;2022-12-01T17:05:31;5.10;99.90
6666;DHT22;3369;49.906;8.598;2022-12-01T17:07:57;5.00;99.90
6666;DHT22;3369;49.906;8.598;2022-12-01T17:10:23;5.00;99.90
6666;DHT22;3369;49.906;8.598;2022-12-01T17:12:49;5.00;99.90
6666;DHT22;3369;49.906;8.598;2022-12-01T17:15:15;5.00;99.90
6666;DHT22;3369;49.906;8.598;2022-12-01T17:17:41;5.00;99.90
6666;DHT22;3369;49.906;8.598;2022-12-01T17:20:08;5.00;99.90
6666;DHT22;3369;49.906;8.598;2022-12-01T17:22:34;5.00;99.90
6666;DHT22;3369;49.906;8.598;2022-12-01T17:25:00;4.90;99.90
6666;DHT22;3369;49.906;8.598;2022-12-01T17:27:27;5.00;99.90
6666;DHT22;3369;49.906;8.598;2022-12-01T17:29:53;5.00;99.90
6666;DHT22;3369;49.906;8.598;2022-12-01T17:32:19;5.10;99.90
6666;DHT22;3369;49.906;8.598;2022-12-01T17:34:45;5.00;99.90
6666;DHT22;3369;49.906;8.598;2022-12-01T17:37:11;5.00;99.90
6666;DHT22;3369;49.906;8.598;2022-12-01T17:39:36;5.00;99.90
6666;DHT22;3369;49.906;8.598;2022-12-01T17:42:02;5.00;99.90
6666;DHT22;3369;49.906;8.598;2022-12-01T17:44:28;4.90;99.90
6666;DHT22;3369;49.906;8.598;2022-12-01T17:46:53;4.90;99.90
6666;DHT22;3369;49.906;8.598;2022-12-01T17:49:19;4.90;99.90
6666;DHT22;3369;49.906;8.598;2022-12-01T17:51:45;5.00;99.90
6666;DHT22;3369;49.906;8.598;2022-12-01T17:54:11;4.90;99.90
6666;DHT22;3369;49.906;8.598;2022-12-01T17:56:36;4.90;99.90
6666;DHT22;3369;49.906;8.598;2022-12-01T17:59:02;4.90;99.90
6666;DHT22;3369;49.906;8.598;2022-12-01T18:01:28;4.90;99.90
6666;DHT22;3369;49.906;8.598;2022-12-01T18:03:53;4.90;99.90
6666;DHT22;3369;49.906;8.598;2022-12-01T18:06:19;4.90;99.90
6666;DHT22;3369;49.906;8.598;2022-12-01T18:08:45;5.00;99.90
6666;DHT22;3369;49.906;8.598;2022-12-01T18:11:14;4.90;99.90
6666;DHT22;3369;49.906;8.598;2022-12-01T18:13:42;4.90;99.90
6666;DHT22;3369;49.906;8.598;2022-12-01T18:16:13;4.90;99.90
6666;DHT22;3369;49.906;8.598;2022-12-01T18:18:39;4.90;99.90
6666;DHT22;3369;49.906;8.598;2022-12-01T18:21:06;4.90;99.90
6666;DHT22;3369;49.906;8.598;2022-12-01T18:23:32;4.90;99.90
6666;DHT22;3369;49.906;8.598;2022-12-01T18:26:07;4.90;99.90
6666;DHT22;3369;49.906;8.598;2022-12-01T18:28:34;4.80;99.90
6666;DHT22;3369;49.906;8.598;2022-12-01T18:31:12;4.80;99.90
6666;DHT22;3369;49.906;8.598;2022-12-01T18:33:40;4.80;99.90
6666;DHT22;3369;49.906;8.598;2022-12-01T18:36:19;4.80;99.90
6666;DHT22;3369;49.906;8.598;2022-12-01T18:38:45;4.80;99.90
6666;DHT22;3369;49.906;8.598;2022-12-01T18:41:15;4.80;99.90
6666;DHT22;3369;49.906;8.598;2022-12-01T18:43:41;4.80;99.90
6666;DHT22;3369;49.906;8.598;2022-12-01T18:46:07;4.80;99.90
6666;DHT22;3369;49.906;8.598;2022-12-01T18:48:33;4.80;99.90
6666;DHT22;3369;49.906;8.598;2022-12-01T18:51:06;4.80;99.90
6666;DHT22;3369;49.906;8.598;2022-12-01T18:53:33;4.80;99.90
6666;DHT22;3369;49.906;8.598;2022-12-01T18:56:03;4.80;99.90
6666;DHT22;3369;49.906;8.598;2022-12-01T18:58:30;4.80;99.90
6666;DHT22;3369;49.906;8.598;2022-12-01T19:00:56;4.80;99.90
6666;DHT22;3369;49.906;8.598;2022-12-01T19:03:22;4.80;99.90
6666;DHT22;3369;49.906;8.598;2022-12-01T19:05:48;4.80;99.90
6666;DHT22;3369;49.906;8.598;2022-12-01T19:08:14;4.80;99.90